createdAt,value
2022-08-07T00:10:04.723Z,98128.75
2022-08-07T00:20:09.613Z,98126.59
2022-08-07T00:30:21.557Z,98139.75
2022-08-07T00:40:36.706Z,98131.94
2022-08-07T00:50:46.273Z,98137.69
2022-08-07T01:00:53.614Z,98134.34
2022-08-07T01:10:56.697Z,98130.44
2022-08-07T01:21:22.774Z,98142.97
2022-08-07T01:31:42.748Z,98132.91
2022-08-07T01:42:07.261Z,98127.72
2022-08-07T01:52:13.528Z,98123.09
2022-08-07T02:03:12.296Z,98112.34
2022-08-07T02:13:00.106Z,98109.81
2022-08-07T02:23:11.717Z,98112.69
2022-08-07T02:33:16.121Z,98103.56
2022-08-07T02:43:20.765Z,98097.34
2022-08-07T02:53:28.575Z,98097.22
2022-08-07T03:03:42.206Z,98086.97
2022-08-07T03:13:57.715Z,98089.63
2022-08-07T03:24:18.943Z,98091.31
2022-08-07T03:34:28.390Z,98093.38
2022-08-07T03:44:36.440Z,98094.72
2022-08-07T03:54:53.904Z,98115.78
2022-08-07T04:04:57.954Z,98100.16
2022-08-07T04:15:01.406Z,98115.47
2022-08-07T04:25:12.738Z,98105.53
2022-08-07T04:35:17.626Z,98103.66
2022-08-07T04:45:57.733Z,98104.03
2022-08-07T04:58:14.765Z,98117.03
2022-08-07T05:06:22.749Z,98114.16
2022-08-07T05:16:32.962Z,98106.00
2022-08-07T05:26:36.554Z,98113.78
2022-08-07T05:36:48.840Z,98108.59
2022-08-07T05:47:21.362Z,98112.06
2022-08-07T05:57:42.849Z,98101.00
2022-08-07T06:08:14.321Z,98104.81
2022-08-07T06:18:14.614Z,98107.66
2022-08-07T06:28:17.965Z,98088.59
2022-08-07T06:38:30.353Z,98080.34
2022-08-07T06:48:33.098Z,98078.50
2022-08-07T06:58:35.951Z,98077.72
2022-08-07T07:08:46.838Z,98064.84
2022-08-07T07:18:56.144Z,98060.44
2022-08-07T07:29:40.717Z,98051.44
2022-08-07T07:39:26.939Z,98045.72
2022-08-07T07:50:34.517Z,98031.25
2022-08-07T08:00:21.195Z,98026.47
2022-08-07T08:10:37.622Z,98009.63
2022-08-07T08:20:41.233Z,98000.19
2022-08-07T08:30:51.422Z,98008.16
2022-08-07T08:41:13.134Z,98005.97
2022-08-07T08:51:49.279Z,97989.44
2022-08-07T09:02:09.650Z,97978.38
2022-08-07T09:12:33.235Z,97982.53
2022-08-07T09:24:31.600Z,97986.56
2022-08-07T09:33:41.300Z,97978.56
2022-08-07T09:44:30.013Z,97975.59
2022-08-07T09:55:01.324Z,97972.25
2022-08-07T10:05:59.277Z,97945.63
2022-08-07T10:16:06.079Z,97949.50
2022-08-07T10:26:36.960Z,97929.72
2022-08-07T10:36:56.582Z,97927.66
2022-08-07T10:47:11.898Z,97921.28
2022-08-07T10:57:33.952Z,97925.31
2022-08-07T11:08:02.579Z,97913.22
2022-08-07T11:18:35.179Z,97898.63
2022-08-07T11:28:53.506Z,97890.59
2022-08-07T11:40:00.770Z,97885.84
2022-08-07T11:50:30.289Z,97869.41
2022-08-07T12:01:02.278Z,97855.03
2022-08-07T12:11:21.834Z,97862.00
2022-08-07T12:22:36.925Z,97857.06
2022-08-07T12:32:23.375Z,97836.69
2022-08-07T12:42:28.539Z,97829.00
2022-08-07T12:52:59.646Z,97806.91
2022-08-07T13:04:02.385Z,97805.72
2022-08-07T13:14:25.997Z,97800.41
2022-08-07T13:24:53.921Z,97799.69
2022-08-07T13:35:59.576Z,97782.50
2022-08-07T13:46:20.895Z,97764.50
2022-08-07T13:56:35.655Z,97748.81
2022-08-07T14:06:46.055Z,97745.78
2022-08-07T14:16:56.329Z,97736.94
2022-08-07T14:28:19.939Z,97729.63
2022-08-07T14:37:36.218Z,97730.19
2022-08-07T14:47:43.227Z,97724.28
2022-08-07T14:57:58.311Z,97719.91
2022-08-07T15:08:06.947Z,97711.25
2022-08-07T15:18:41.725Z,97712.50
2022-08-07T15:28:55.555Z,97702.69
2022-08-07T15:39:04.594Z,97704.97
2022-08-07T15:49:16.206Z,97706.81
2022-08-07T15:59:39.585Z,97697.09
2022-08-07T16:10:10.668Z,97688.84
2022-08-07T16:20:41.864Z,97683.31
2022-08-07T16:31:12.916Z,97684.41
2022-08-07T16:42:08.778Z,97685.66
2022-08-07T16:52:50.748Z,97686.53
2022-08-07T17:03:18.021Z,97706.53
2022-08-07T17:14:18.937Z,97703.19
2022-08-07T17:25:04.427Z,97715.94
2022-08-07T17:35:49.903Z,97712.88
2022-08-07T17:45:50.463Z,97733.06
2022-08-07T17:56:31.382Z,97732.47
2022-08-07T18:06:46.039Z,97738.56
2022-08-07T18:17:10.766Z,97745.56
2022-08-07T18:27:39.259Z,97757.09
2022-08-07T18:38:58.088Z,97762.56
2022-08-07T18:48:38.190Z,97785.59
2022-08-07T18:59:00.185Z,97808.91
2022-08-07T19:09:55.596Z,97828.31
2022-08-07T19:19:37.383Z,97849.00
2022-08-07T19:31:01.706Z,97868.28
2022-08-07T19:40:12.804Z,97867.34
2022-08-07T19:50:45.277Z,97879.22
2022-08-07T20:00:40.574Z,97875.09
2022-08-07T20:11:12.049Z,97878.44
2022-08-07T20:21:21.982Z,97870.56
2022-08-07T20:31:25.730Z,97871.66
2022-08-07T20:41:34.041Z,97870.19
2022-08-07T20:51:50.445Z,97866.41
2022-08-07T21:01:55.484Z,97863.56
2022-08-07T21:12:08.102Z,97861.25
2022-08-07T21:22:19.487Z,97868.84
2022-08-07T21:32:47.290Z,97858.09
2022-08-07T21:43:06.578Z,97860.19
2022-08-07T21:53:16.316Z,97866.84
2022-08-07T22:03:31.243Z,97868.25
2022-08-07T22:13:50.454Z,97884.09
2022-08-07T22:24:03.618Z,97883.78
2022-08-07T22:34:12.907Z,97893.72
2022-08-07T22:44:22.703Z,97895.56
2022-08-07T22:54:51.373Z,97897.59
2022-08-07T23:06:07.291Z,97900.56
2022-08-07T23:16:39.222Z,97895.50
2022-08-07T23:27:01.448Z,97888.00
2022-08-07T23:37:23.037Z,97893.47
2022-08-07T23:47:42.135Z,97892.84
2022-08-07T23:58:04.194Z,97898.41
